sensor_id;sensor_type;location;lat;lon;timestamp;P1;durP1;ratioP1;P2;durP2;ratioP2
8365;SDS011;4220;42.502;24.188;2023-07-16T00:00:39;10.73;;;5.85;;
8365;SDS011;4220;42.502;24.188;2023-07-16T00:03:06;9.85;;;6.75;;
8365;SDS011;4220;42.502;24.188;2023-07-16T00:05:34;10.52;;;7.30;;
8365;SDS011;4220;42.502;24.188;2023-07-16T00:08:03;9.45;;;5.93;;
8365;SDS011;4220;42.502;24.188;2023-07-16T00:10:31;6.38;;;5.70;;
8365;SDS011;4220;42.502;24.188;2023-07-16T00:13:00;9.30;;;5.95;;
8365;SDS011;4220;42.502;24.188;2023-07-16T00:15:29;7.05;;;6.35;;
8365;SDS011;4220;42.502;24.188;2023-07-16T00:17:56;8.13;;;6.20;;
8365;SDS011;4220;42.502;24.188;2023-07-16T00:20:22;7.07;;;6.30;;
8365;SDS011;4220;42.502;24.188;2023-07-16T00:22:49;6.88;;;6.10;;
8365;SDS011;4220;42.502;24.188;2023-07-16T00:25:16;9.80;;;6.25;;
8365;SDS011;4220;42.502;24.188;2023-07-16T00:27:45;7.63;;;6.82;;
8365;SDS011;4220;42.502;24.188;2023-07-16T00:30:12;8.60;;;6.10;;
8365;SDS011;4220;42.502;24.188;2023-07-16T00:32:39;6.85;;;6.00;;
8365;SDS011;4220;42.502;24.188;2023-07-16T00:35:06;9.35;;;6.20;;
8365;SDS011;4220;42.502;24.188;2023-07-16T00:37:33;7.32;;;6.00;;
8365;SDS011;4220;42.502;24.188;2023-07-16T00:40:00;6.93;;;6.22;;
8365;SDS011;4220;42.502;24.188;2023-07-16T00:42:27;6.85;;;6.15;;
8365;SDS011;4220;42.502;24.188;2023-07-16T00:44:55;6.50;;;5.70;;
8365;SDS011;4220;42.502;24.188;2023-07-16T00:47:22;7.10;;;5.93;;
8365;SDS011;4220;42.502;24.188;2023-07-16T00:49:49;7.38;;;5.80;;
8365;SDS011;4220;42.502;24.188;2023-07-16T00:52:17;7.22;;;6.10;;
8365;SDS011;4220;42.502;24.188;2023-07-16T00:54:47;7.82;;;5.22;;
8365;SDS011;4220;42.502;24.188;2023-07-16T00:57:14;7.35;;;6.07;;
8365;SDS011;4220;42.502;24.188;2023-07-16T00:59:41;8.68;;;6.45;;
8365;SDS011;4220;42.502;24.188;2023-07-16T01:02:10;7.05;;;5.72;;
8365;SDS011;4220;42.502;24.188;2023-07-16T01:04:37;7.72;;;6.47;;
8365;SDS011;4220;42.502;24.188;2023-07-16T01:07:04;7.88;;;6.18;;
8365;SDS011;4220;42.502;24.188;2023-07-16T01:09:34;6.53;;;5.82;;
8365;SDS011;4220;42.502;24.188;2023-07-16T01:12:05;8.45;;;6.30;;
8365;SDS011;4220;42.502;24.188;2023-07-16T01:14:33;6.50;;;5.90;;
8365;SDS011;4220;42.502;24.188;2023-07-16T01:17:02;6.55;;;5.95;;
8365;SDS011;4220;42.502;24.188;2023-07-16T01:19:31;10.63;;;5.85;;
8365;SDS011;4220;42.502;24.188;2023-07-16T01:22:01;7.60;;;5.93;;
8365;SDS011;4220;42.502;24.188;2023-07-16T01:24:45;8.57;;;5.88;;
8365;SDS011;4220;42.502;24.188;2023-07-16T01:27:44;6.38;;;5.78;;
8365;SDS011;4220;42.502;24.188;2023-07-16T01:30:27;6.50;;;5.65;;
8365;SDS011;4220;42.502;24.188;2023-07-16T01:32:55;6.28;;;5.78;;
8365;SDS011;4220;42.502;24.188;2023-07-16T01:35:23;6.00;;;5.07;;
8365;SDS011;4220;42.502;24.188;2023-07-16T01:37:50;5.85;;;5.30;;
8365;SDS011;4220;42.502;24.188;2023-07-16T01:40:17;7.15;;;5.78;;
8365;SDS011;4220;42.502;24.188;2023-07-16T01:42:44;6.57;;;5.78;;
8365;SDS011;4220;42.502;24.188;2023-07-16T01:45:11;6.13;;;5.22;;
8365;SDS011;4220;42.502;24.188;2023-07-16T01:47:45;6.30;;;5.40;;
8365;SDS011;4220;42.502;24.188;2023-07-16T01:50:19;6.18;;;5.57;;
8365;SDS011;4220;42.502;24.188;2023-07-16T01:52:46;7.25;;;5.43;;
8365;SDS011;4220;42.502;24.188;2023-07-16T01:55:13;7.97;;;5.35;;
8365;SDS011;4220;42.502;24.188;2023-07-16T01:57:40;7.57;;;5.45;;
8365;SDS011;4220;42.502;24.188;2023-07-16T02:00:07;7.15;;;5.78;;
8365;SDS011;4220;42.502;24.188;2023-07-16T02:02:34;5.97;;;5.38;;
8365;SDS011;4220;42.502;24.188;2023-07-16T02:05:02;6.07;;;5.25;;
8365;SDS011;4220;42.502;24.188;2023-07-16T02:07:30;7.22;;;5.28;;
8365;SDS011;4220;42.502;24.188;2023-07-16T02:09:57;6.85;;;5.57;;
8365;SDS011;4220;42.502;24.188;2023-07-16T02:12:23;5.70;;;5.15;;
8365;SDS011;4220;42.502;24.188;2023-07-16T02:14:50;7.60;;;6.15;;
8365;SDS011;4220;42.502;24.188;2023-07-16T02:17:17;7.70;;;5.68;;
8365;SDS011;4220;42.502;24.188;2023-07-16T02:19:44;7.35;;;5.60;;
8365;SDS011;4220;42.502;24.188;2023-07-16T02:22:12;7.13;;;5.88;;
8365;SDS011;4220;42.502;24.188;2023-07-16T02:24:39;6.70;;;5.43;;
8365;SDS011;4220;42.502;24.188;2023-07-16T02:27:05;6.82;;;5.68;;
8365;SDS011;4220;42.502;24.188;2023-07-16T02:29:32;5.57;;;5.05;;
8365;SDS011;4220;42.502;24.188;2023-07-16T02:31:59;5.63;;;5.13;;
8365;SDS011;4220;42.502;24.188;2023-07-16T02:34:26;6.35;;;5.07;;
8365;SDS011;4220;42.502;24.188;2023-07-16T02:36:53;7.43;;;5.82;;
8365;SDS011;4220;42.502;24.188;2023-07-16T02:39:21;5.78;;;5.28;;
8365;SDS011;4220;42.502;24.188;2023-07-16T02:41:48;5.78;;;5.18;;
8365;SDS011;4220;42.502;24.188;2023-07-16T02:44:15;6.93;;;5.50;;
8365;SDS011;4220;42.502;24.188;2023-07-16T02:46:41;6.15;;;5.53;;
8365;SDS011;4220;42.502;24.188;2023-07-16T02:49:09;6.57;;;5.15;;
8365;SDS011;4220;42.502;24.188;2023-07-16T02:51:36;7.35;;;5.20;;
8365;SDS011;4220;42.502;24.188;2023-07-16T02:54:02;5.15;;;4.65;;
8365;SDS011;4220;42.502;24.188;2023-07-16T02:56:31;8.20;;;5.47;;
8365;SDS011;4220;42.502;24.188;2023-07-16T02:58:57;6.57;;;5.28;;
8365;SDS011;4220;42.502;24.188;2023-07-16T03:01:24;6.55;;;4.93;;
8365;SDS011;4220;42.502;24.188;2023-07-16T03:03:51;6.47;;;4.68;;
8365;SDS011;4220;42.502;24.188;2023-07-16T03:06:18;7.20;;;4.97;;
8365;SDS011;4220;42.502;24.188;2023-07-16T03:08:45;7.00;;;5.15;;
8365;SDS011;4220;42.502;24.188;2023-07-16T03:11:12;6.35;;;5.28;;
8365;SDS011;4220;42.502;24.188;2023-07-16T03:13:40;6.20;;;5.60;;
8365;SDS011;4220;42.502;24.188;2023-07-16T03:16:07;5.93;;;5.15;;
8365;SDS011;4220;42.502;24.188;2023-07-16T03:18:34;5.03;;;4.57;;
8365;SDS011;4220;42.502;24.188;2023-07-16T03:21:00;8.35;;;4.97;;
8365;SDS011;4220;42.502;24.188;2023-07-16T03:23:27;6.53;;;5.65;;
8365;SDS011;4220;42.502;24.188;2023-07-16T03:25:54;8.20;;;5.30;;
8365;SDS011;4220;42.502;24.188;2023-07-16T03:28:21;6.78;;;4.80;;
8365;SDS011;4220;42.502;24.188;2023-07-16T03:30:50;5.93;;;4.97;;
8365;SDS011;4220;42.502;24.188;2023-07-16T03:33:17;5.32;;;4.80;;
8365;SDS011;4220;42.502;24.188;2023-07-16T03:35:44;6.63;;;5.38;;
8365;SDS011;4220;42.502;24.188;2023-07-16T03:38:11;5.22;;;4.38;;
8365;SDS011;4220;42.502;24.188;2023-07-16T03:40:39;7.38;;;4.85;;
8365;SDS011;4220;42.502;24.188;2023-07-16T03:43:08;6.20;;;4.88;;
8365;SDS011;4220;42.502;24.188;2023-07-16T03:45:35;6.60;;;5.80;;
8365;SDS011;4220;42.502;24.188;2023-07-16T03:48:03;5.13;;;4.50;;
8365;SDS011;4220;42.502;24.188;2023-07-16T03:50:30;6.07;;;5.18;;
8365;SDS011;4220;42.502;24.188;2023-07-16T03:52:57;7.03;;;4.82;;
8365;SDS011;4220;42.502;24.188;2023-07-16T03:55:25;5.35;;;4.60;;
8365;SDS011;4220;42.502;24.188;2023-07-16T03:57:52;10.15;;;5.53;;
8365;SDS011;4220;42.502;24.188;2023-07-16T04:00:19;5.90;;;4.80;;
8365;SDS011;4220;42.502;24.188;2023-07-16T04:02:45;5.75;;;5.20;;
8365;SDS011;4220;42.502;24.188;2023-07-16T04:05:14;5.43;;;4.93;;
8365;SDS011;4220;42.502;24.188;2023-07-16T04:07:40;5.90;;;4.60;;
8365;SDS011;4220;42.502;24.188;2023-07-16T04:10:07;5.10;;;4.70;;
8365;SDS011;4220;42.502;24.188;2023-07-16T04:12:34;5.30;;;4.80;;
8365;SDS011;4220;42.502;24.188;2023-07-16T04:15:06;6.95;;;5.03;;
8365;SDS011;4220;42.502;24.188;2023-07-16T04:17:34;6.45;;;4.97;;
8365;SDS011;4220;42.502;24.188;2023-07-16T04:20:00;7.95;;;5.00;;
8365;SDS011;4220;42.502;24.188;2023-07-16T04:22:29;7.60;;;4.57;;
8365;SDS011;4220;42.502;24.188;2023-07-16T04:24:56;11.25;;;6.03;;
8365;SDS011;4220;42.502;24.188;2023-07-16T04:27:23;6.60;;;4.82;;
8365;SDS011;4220;42.502;24.188;2023-07-16T04:29:49;8.75;;;5.32;;
8365;SDS011;4220;42.502;24.188;2023-07-16T04:32:16;9.77;;;4.88;;
8365;SDS011;4220;42.502;24.188;2023-07-16T04:34:43;4.85;;;4.45;;
8365;SDS011;4220;42.502;24.188;2023-07-16T04:37:10;5.18;;;4.68;;
8365;SDS011;4220;42.502;24.188;2023-07-16T04:39:38;5.18;;;4.68;;
8365;SDS011;4220;42.502;24.188;2023-07-16T04:42:05;6.18;;;4.82;;
8365;SDS011;4220;42.502;24.188;2023-07-16T04:44:32;8.82;;;5.88;;
8365;SDS011;4220;42.502;24.188;2023-07-16T04:46:59;8.20;;;5.10;;
8365;SDS011;4220;42.502;24.188;2023-07-16T04:49:26;5.22;;;4.82;;
8365;SDS011;4220;42.502;24.188;2023-07-16T04:51:52;6.00;;;5.10;;
8365;SDS011;4220;42.502;24.188;2023-07-16T04:54:19;7.63;;;4.88;;
8365;SDS011;4220;42.502;24.188;2023-07-16T04:56:47;7.28;;;4.82;;
8365;SDS011;4220;42.502;24.188;2023-07-16T04:59:14;8.65;;;5.25;;
8365;SDS011;4220;42.502;24.188;2023-07-16T05:01:41;6.68;;;6.07;;
8365;SDS011;4220;42.502;24.188;2023-07-16T05:04:08;5.80;;;5.20;;
8365;SDS011;4220;42.502;24.188;2023-07-16T05:06:35;6.90;;;5.05;;
8365;SDS011;4220;42.502;24.188;2023-07-16T05:09:01;9.52;;;5.05;;
8365;SDS011;4220;42.502;24.188;2023-07-16T05:11:28;7.72;;;5.45;;
8365;SDS011;4220;42.502;24.188;2023-07-16T05:13:56;8.52;;;5.20;;
8365;SDS011;4220;42.502;24.188;2023-07-16T05:16:23;8.27;;;6.07;;
8365;SDS011;4220;42.502;24.188;2023-07-16T05:18:50;7.80;;;5.78;;
8365;SDS011;4220;42.502;24.188;2023-07-16T05:21:17;7.28;;;5.40;;
8365;SDS011;4220;42.502;24.188;2023-07-16T05:23:43;10.57;;;5.05;;
8365;SDS011;4220;42.502;24.188;2023-07-16T05:26:10;6.07;;;4.70;;
8365;SDS011;4220;42.502;24.188;2023-07-16T05:28:37;9.25;;;4.43;;
8365;SDS011;4220;42.502;24.188;2023-07-16T05:31:05;5.30;;;4.78;;
8365;SDS011;4220;42.502;24.188;2023-07-16T05:33:32;6.85;;;4.53;;
8365;SDS011;4220;42.502;24.188;2023-07-16T05:35:59;6.88;;;4.72;;
8365;SDS011;4220;42.502;24.188;2023-07-16T05:38:26;6.05;;;4.22;;
8365;SDS011;4220;42.502;24.188;2023-07-16T05:40:52;6.57;;;4.70;;
8365;SDS011;4220;42.502;24.188;2023-07-16T05:43:19;7.38;;;5.75;;
8365;SDS011;4220;42.502;24.188;2023-07-16T05:45:46;4.82;;;4.32;;
8365;SDS011;4220;42.502;24.188;2023-07-16T05:48:16;4.63;;;4.00;;
8365;SDS011;4220;42.502;24.188;2023-07-16T05:50:43;6.07;;;4.47;;
8365;SDS011;4220;42.502;24.188;2023-07-16T05:53:10;6.40;;;4.30;;
8365;SDS011;4220;42.502;24.188;2023-07-16T05:55:39;4.93;;;3.97;;
8365;SDS011;4220;42.502;24.188;2023-07-16T05:58:05;4.30;;;3.90;;
8365;SDS011;4220;42.502;24.188;2023-07-16T06:00:33;4.47;;;4.07;;
8365;SDS011;4220;42.502;24.188;2023-07-16T06:03:01;5.07;;;3.90;;
8365;SDS011;4220;42.502;24.188;2023-07-16T06:05:30;4.70;;;4.30;;
8365;SDS011;4220;42.502;24.188;2023-07-16T06:07:59;4.65;;;4.15;;
8365;SDS011;4220;42.502;24.188;2023-07-16T06:10:26;4.30;;;3.83;;
8365;SDS011;4220;42.502;24.188;2023-07-16T06:12:52;7.55;;;4.75;;
8365;SDS011;4220;42.502;24.188;2023-07-16T06:15:19;4.35;;;3.92;;
8365;SDS011;4220;42.502;24.188;2023-07-16T06:17:46;11.13;;;4.35;;
8365;SDS011;4220;42.502;24.188;2023-07-16T06:20:13;5.28;;;4.00;;
8365;SDS011;4220;42.502;24.188;2023-07-16T06:22:42;4.78;;;3.85;;
8365;SDS011;4220;42.502;24.188;2023-07-16T06:25:09;5.53;;;3.47;;
8365;SDS011;4220;42.502;24.188;2023-07-16T06:27:36;4.25;;;3.85;;
8365;SDS011;4220;42.502;24.188;2023-07-16T06:30:03;4.60;;;4.20;;
8365;SDS011;4220;42.502;24.188;2023-07-16T06:32:31;5.10;;;3.90;;
8365;SDS011;4220;42.502;24.188;2023-07-16T06:34:58;5.97;;;4.68;;
8365;SDS011;4220;42.502;24.188;2023-07-16T06:37:25;5.32;;;4.80;;
8365;SDS011;4220;42.502;24.188;2023-07-16T06:39:53;5.55;;;3.80;;
8365;SDS011;4220;42.502;24.188;2023-07-16T06:42:20;4.90;;;4.35;;
8365;SDS011;4220;42.502;24.188;2023-07-16T06:44:46;6.55;;;3.72;;
8365;SDS011;4220;42.502;24.188;2023-07-16T06:47:13;5.55;;;3.92;;
8365;SDS011;4220;42.502;24.188;2023-07-16T06:49:40;4.45;;;3.97;;
8365;SDS011;4220;42.502;24.188;2023-07-16T06:52:07;4.47;;;4.07;;
8365;SDS011;4220;42.502;24.188;2023-07-16T06:54:34;5.40;;;4.60;;
8365;SDS011;4220;42.502;24.188;2023-07-16T06:57:03;5.40;;;4.35;;
8365;SDS011;4220;42.502;24.188;2023-07-16T06:59:30;7.05;;;4.80;;
8365;SDS011;4220;42.502;24.188;2023-07-16T07:01:56;6.20;;;4.80;;
8365;SDS011;4220;42.502;24.188;2023-07-16T07:04:24;4.70;;;3.90;;
8365;SDS011;4220;42.502;24.188;2023-07-16T07:06:51;7.07;;;4.63;;
8365;SDS011;4220;42.502;24.188;2023-07-16T07:09:17;9.95;;;4.32;;
8365;SDS011;4220;42.502;24.188;2023-07-16T07:11:44;5.15;;;4.00;;
8365;SDS011;4220;42.502;24.188;2023-07-16T07:14:12;4.80;;;4.25;;
8365;SDS011;4220;42.502;24.188;2023-07-16T07:16:39;6.05;;;4.10;;
8365;SDS011;4220;42.502;24.188;2023-07-16T07:19:06;6.88;;;3.97;;
8365;SDS011;4220;42.502;24.188;2023-07-16T07:21:33;9.75;;;8.68;;
8365;SDS011;4220;42.502;24.188;2023-07-16T07:23:59;5.28;;;4.78;;
8365;SDS011;4220;42.502;24.188;2023-07-16T07:26:26;4.85;;;4.45;;
8365;SDS011;4220;42.502;24.188;2023-07-16T07:28:53;5.13;;;4.63;;
8365;SDS011;4220;42.502;24.188;2023-07-16T07:31:22;4.55;;;4.15;;
8365;SDS011;4220;42.502;24.188;2023-07-16T07:33:48;6.50;;;4.18;;
8365;SDS011;4220;42.502;24.188;2023-07-16T07:36:15;5.10;;;4.60;;
8365;SDS011;4220;42.502;24.188;2023-07-16T07:38:42;5.07;;;4.60;;
8365;SDS011;4220;42.502;24.188;2023-07-16T07:41:09;4.95;;;4.20;;
8365;SDS011;4220;42.502;24.188;2023-07-16T07:43:36;5.80;;;4.35;;
8365;SDS011;4220;42.502;24.188;2023-07-16T07:46:02;4.63;;;4.22;;
8365;SDS011;4220;42.502;24.188;2023-07-16T07:48:32;4.40;;;4.00;;
8365;SDS011;4220;42.502;24.188;2023-07-16T07:50:59;5.03;;;4.47;;
8365;SDS011;4220;42.502;24.188;2023-07-16T07:53:25;5.20;;;3.95;;
8365;SDS011;4220;42.502;24.188;2023-07-16T07:55:52;4.50;;;4.10;;
8365;SDS011;4220;42.502;24.188;2023-07-16T07:58:20;4.53;;;4.13;;
8365;SDS011;4220;42.502;24.188;2023-07-16T08:00:47;4.38;;;4.05;;
8365;SDS011;4220;42.502;24.188;2023-07-16T08:03:14;4.95;;;3.95;;
8365;SDS011;4220;42.502;24.188;2023-07-16T08:05:42;4.38;;;3.97;;
8365;SDS011;4220;42.502;24.188;2023-07-16T08:08:09;5.97;;;4.40;;
8365;SDS011;4220;42.502;24.188;2023-07-16T08:10:35;5.75;;;4.50;;
8365;SDS011;4220;42.502;24.188;2023-07-16T08:13:02;8.68;;;4.13;;
8365;SDS011;4220;42.502;24.188;2023-07-16T08:15:29;4.63;;;4.22;;
8365;SDS011;4220;42.502;24.188;2023-07-16T08:17:56;5.75;;;4.28;;
8365;SDS011;4220;42.502;24.188;2023-07-16T08:20:24;5.75;;;4.15;;
8365;SDS011;4220;42.502;24.188;2023-07-16T08:22:52;5.80;;;5.03;;
8365;SDS011;4220;42.502;24.188;2023-07-16T08:25:19;5.43;;;4.60;;
8365;SDS011;4220;42.502;24.188;2023-07-16T08:27:46;5.13;;;4.50;;
8365;SDS011;4220;42.502;24.188;2023-07-16T08:30:14;5.20;;;4.07;;
8365;SDS011;4220;42.502;24.188;2023-07-16T08:32:40;7.07;;;4.20;;
8365;SDS011;4220;42.502;24.188;2023-07-16T08:35:07;6.47;;;4.32;;
8365;SDS011;4220;42.502;24.188;2023-07-16T08:37:40;4.75;;;3.80;;
8365;SDS011;4220;42.502;24.188;2023-07-16T08:40:09;7.22;;;4.38;;
8365;SDS011;4220;42.502;24.188;2023-07-16T08:42:37;6.50;;;4.30;;
8365;SDS011;4220;42.502;24.188;2023-07-16T08:45:05;6.93;;;4.38;;
8365;SDS011;4220;42.502;24.188;2023-07-16T08:47:35;4.88;;;3.75;;
8365;SDS011;4220;42.502;24.188;2023-07-16T08:50:03;4.80;;;4.40;;
8365;SDS011;4220;42.502;24.188;2023-07-16T08:52:30;5.47;;;4.22;;
8365;SDS011;4220;42.502;24.188;2023-07-16T08:54:57;4.32;;;4.03;;
8365;SDS011;4220;42.502;24.188;2023-07-16T08:57:25;5.53;;;4.30;;
8365;SDS011;4220;42.502;24.188;2023-07-16T08:59:53;7.38;;;4.75;;
8365;SDS011;4220;42.502;24.188;2023-07-16T09:02:21;5.65;;;4.25;;
8365;SDS011;4220;42.502;24.188;2023-07-16T09:04:48;6.93;;;4.47;;
8365;SDS011;4220;42.502;24.188;2023-07-16T09:07:16;6.18;;;4.50;;
8365;SDS011;4220;42.502;24.188;2023-07-16T09:09:43;4.40;;;4.00;;
8365;SDS011;4220;42.502;24.188;2023-07-16T09:12:11;4.45;;;4.00;;
8365;SDS011;4220;42.502;24.188;2023-07-16T09:14:41;5.47;;;4.45;;
8365;SDS011;4220;42.502;24.188;2023-07-16T09:17:09;4.80;;;4.40;;
8365;SDS011;4220;42.502;24.188;2023-07-16T09:19:35;5.68;;;4.18;;
8365;SDS011;4220;42.502;24.188;2023-07-16T09:22:03;6.00;;;4.00;;
8365;SDS011;4220;42.502;24.188;2023-07-16T09:24:30;4.32;;;3.70;;
8365;SDS011;4220;42.502;24.188;2023-07-16T09:26:56;4.82;;;4.07;;
8365;SDS011;4220;42.502;24.188;2023-07-16T09:29:29;5.82;;;4.07;;
8365;SDS011;4220;42.502;24.188;2023-07-16T09:31:58;5.70;;;4.70;;
8365;SDS011;4220;42.502;24.188;2023-07-16T09:34:27;6.90;;;4.93;;
8365;SDS011;4220;42.502;24.188;2023-07-16T09:36:55;6.20;;;4.35;;
8365;SDS011;4220;42.502;24.188;2023-07-16T09:39:22;4.20;;;3.90;;
8365;SDS011;4220;42.502;24.188;2023-07-16T09:41:51;9.90;;;4.22;;
8365;SDS011;4220;42.502;24.188;2023-07-16T09:44:18;5.10;;;4.70;;
8365;SDS011;4220;42.502;24.188;2023-07-16T09:46:46;4.90;;;4.00;;
8365;SDS011;4220;42.502;24.188;2023-07-16T09:49:15;5.25;;;4.75;;
8365;SDS011;4220;42.502;24.188;2023-07-16T09:51:42;6.47;;;5.03;;
8365;SDS011;4220;42.502;24.188;2023-07-16T09:54:11;6.72;;;4.57;;
8365;SDS011;4220;42.502;24.188;2023-07-16T09:56:40;6.82;;;4.40;;
8365;SDS011;4220;42.502;24.188;2023-07-16T09:59:12;5.90;;;4.50;;
8365;SDS011;4220;42.502;24.188;2023-07-16T10:01:41;5.57;;;4.82;;
8365;SDS011;4220;42.502;24.188;2023-07-16T10:04:12;6.32;;;5.55;;
8365;SDS011;4220;42.502;24.188;2023-07-16T10:06:51;7.53;;;5.28;;
8365;SDS011;4220;42.502;24.188;2023-07-16T10:09:31;5.57;;;4.60;;
8365;SDS011;4220;42.502;24.188;2023-07-16T10:14:50;8.80;;;4.78;;
8365;SDS011;4220;42.502;24.188;2023-07-16T10:17:19;8.30;;;5.35;;
8365;SDS011;4220;42.502;24.188;2023-07-16T10:19:54;6.32;;;4.78;;
8365;SDS011;4220;42.502;24.188;2023-07-16T10:22:33;6.32;;;5.28;;
8365;SDS011;4220;42.502;24.188;2023-07-16T10:25:02;7.78;;;5.20;;
8365;SDS011;4220;42.502;24.188;2023-07-16T10:27:30;7.20;;;5.07;;
8365;SDS011;4220;42.502;24.188;2023-07-16T10:29:58;6.05;;;5.40;;
8365;SDS011;4220;42.502;24.188;2023-07-16T10:32:27;13.43;;;5.57;;
8365;SDS011;4220;42.502;24.188;2023-07-16T10:34:54;10.00;;;5.63;;
8365;SDS011;4220;42.502;24.188;2023-07-16T10:37:22;5.85;;;5.22;;
8365;SDS011;4220;42.502;24.188;2023-07-16T10:39:50;6.75;;;5.38;;
8365;SDS011;4220;42.502;24.188;2023-07-16T10:42:18;7.00;;;6.00;;
8365;SDS011;4220;42.502;24.188;2023-07-16T10:44:48;6.15;;;5.50;;
8365;SDS011;4220;42.502;24.188;2023-07-16T10:47:19;14.57;;;10.85;;
8365;SDS011;4220;42.502;24.188;2023-07-16T10:49:47;6.63;;;5.40;;
8365;SDS011;4220;42.502;24.188;2023-07-16T10:52:15;6.55;;;5.43;;
8365;SDS011;4220;42.502;24.188;2023-07-16T10:54:42;9.20;;;5.30;;
8365;SDS011;4220;42.502;24.188;2023-07-16T10:57:10;6.25;;;5.15;;
8365;SDS011;4220;42.502;24.188;2023-07-16T10:59:38;6.18;;;5.03;;
8365;SDS011;4220;42.502;24.188;2023-07-16T11:02:08;6.78;;;5.70;;
8365;SDS011;4220;42.502;24.188;2023-07-16T11:04:37;8.05;;;5.60;;
8365;SDS011;4220;42.502;24.188;2023-07-16T11:07:04;7.05;;;5.40;;
8365;SDS011;4220;42.502;24.188;2023-07-16T11:09:33;6.55;;;5.28;;
8365;SDS011;4220;42.502;24.188;2023-07-16T11:12:06;6.90;;;5.28;;
8365;SDS011;4220;42.502;24.188;2023-07-16T11:14:35;9.23;;;5.25;;
8365;SDS011;4220;42.502;24.188;2023-07-16T11:17:06;5.57;;;5.18;;
8365;SDS011;4220;42.502;24.188;2023-07-16T11:19:34;6.95;;;5.55;;
8365;SDS011;4220;42.502;24.188;2023-07-16T11:22:02;6.32;;;5.55;;
8365;SDS011;4220;42.502;24.188;2023-07-16T11:24:36;9.27;;;5.70;;
8365;SDS011;4220;42.502;24.188;2023-07-16T11:27:04;7.68;;;5.55;;
8365;SDS011;4220;42.502;24.188;2023-07-16T11:29:36;6.10;;;5.32;;
8365;SDS011;4220;42.502;24.188;2023-07-16T11:32:03;6.03;;;5.53;;
8365;SDS011;4220;42.502;24.188;2023-07-16T11:34:31;5.70;;;5.20;;
8365;SDS011;4220;42.502;24.188;2023-07-16T11:37:06;5.50;;;5.00;;
8365;SDS011;4220;42.502;24.188;2023-07-16T11:39:35;7.28;;;5.45;;
8365;SDS011;4220;42.502;24.188;2023-07-16T11:42:02;6.47;;;5.90;;
8365;SDS011;4220;42.502;24.188;2023-07-16T11:44:33;7.43;;;5.80;;
8365;SDS011;4220;42.502;24.188;2023-07-16T11:47:02;6.43;;;5.93;;
8365;SDS011;4220;42.502;24.188;2023-07-16T11:49:29;6.25;;;5.63;;
8365;SDS011;4220;42.502;24.188;2023-07-16T11:51:56;7.05;;;5.45;;
8365;SDS011;4220;42.502;24.188;2023-07-16T11:54:24;6.45;;;5.85;;
8365;SDS011;4220;42.502;24.188;2023-07-16T11:56:51;7.50;;;6.00;;
8365;SDS011;4220;42.502;24.188;2023-07-16T11:59:18;7.60;;;5.93;;
8365;SDS011;4220;42.502;24.188;2023-07-16T12:01:46;8.18;;;5.60;;
8365;SDS011;4220;42.502;24.188;2023-07-16T12:04:16;8.27;;;5.65;;
8365;SDS011;4220;42.502;24.188;2023-07-16T12:06:43;7.13;;;5.97;;
8365;SDS011;4220;42.502;24.188;2023-07-16T12:09:10;7.80;;;5.78;;
8365;SDS011;4220;42.502;24.188;2023-07-16T12:11:37;6.72;;;6.10;;
8365;SDS011;4220;42.502;24.188;2023-07-16T12:14:04;7.43;;;6.65;;
8365;SDS011;4220;42.502;24.188;2023-07-16T12:16:31;9.80;;;6.40;;
8365;SDS011;4220;42.502;24.188;2023-07-16T12:18:58;7.10;;;6.50;;
8365;SDS011;4220;42.502;24.188;2023-07-16T12:21:26;8.07;;;6.07;;
8365;SDS011;4220;42.502;24.188;2023-07-16T12:23:53;8.40;;;6.50;;
8365;SDS011;4220;42.502;24.188;2023-07-16T12:26:20;11.65;;;6.55;;
8365;SDS011;4220;42.502;24.188;2023-07-16T12:28:47;6.32;;;5.68;;
8365;SDS011;4220;42.502;24.188;2023-07-16T12:31:14;6.57;;;5.85;;
8365;SDS011;4220;42.502;24.188;2023-07-16T12:33:41;9.07;;;6.05;;
8365;SDS011;4220;42.502;24.188;2023-07-16T12:36:08;7.60;;;6.05;;
8365;SDS011;4220;42.502;24.188;2023-07-16T12:38:36;6.63;;;5.90;;
8365;SDS011;4220;42.502;24.188;2023-07-16T12:41:03;7.18;;;6.07;;
8365;SDS011;4220;42.502;24.188;2023-07-16T12:43:30;8.48;;;6.38;;
8365;SDS011;4220;42.502;24.188;2023-07-16T12:45:59;7.32;;;6.00;;
8365;SDS011;4220;42.502;24.188;2023-07-16T12:48:27;6.68;;;6.07;;
8365;SDS011;4220;42.502;24.188;2023-07-16T12:50:54;6.45;;;5.85;;
8365;SDS011;4220;42.502;24.188;2023-07-16T12:53:21;8.07;;;6.88;;
8365;SDS011;4220;42.502;24.188;2023-07-16T12:55:50;7.45;;;6.47;;
8365;SDS011;4220;42.502;24.188;2023-07-16T12:58:17;6.90;;;6.20;;
8365;SDS011;4220;42.502;24.188;2023-07-16T13:00:44;7.85;;;7.13;;
8365;SDS011;4220;42.502;24.188;2023-07-16T13:03:11;8.13;;;6.07;;
8365;SDS011;4220;42.502;24.188;2023-07-16T13:05:41;7.20;;;6.47;;
8365;SDS011;4220;42.502;24.188;2023-07-16T13:08:08;6.70;;;5.90;;
8365;SDS011;4220;42.502;24.188;2023-07-16T13:10:35;6.90;;;6.22;;
8365;SDS011;4220;42.502;24.188;2023-07-16T13:13:03;7.30;;;6.32;;
8365;SDS011;4220;42.502;24.188;2023-07-16T13:15:30;7.38;;;6.47;;
8365;SDS011;4220;42.502;24.188;2023-07-16T13:17:58;6.65;;;6.15;;
8365;SDS011;4220;42.502;24.188;2023-07-16T13:20:25;6.40;;;5.82;;
8365;SDS011;4220;42.502;24.188;2023-07-16T13:22:52;7.13;;;6.50;;
8365;SDS011;4220;42.502;24.188;2023-07-16T13:25:18;7.57;;;6.47;;
8365;SDS011;4220;42.502;24.188;2023-07-16T13:27:45;6.47;;;5.82;;
8365;SDS011;4220;42.502;24.188;2023-07-16T13:30:15;7.78;;;6.28;;
8365;SDS011;4220;42.502;24.188;2023-07-16T13:32:42;10.57;;;6.30;;
8365;SDS011;4220;42.502;24.188;2023-07-16T13:35:09;7.93;;;6.25;;
8365;SDS011;4220;42.502;24.188;2023-07-16T13:37:35;8.38;;;6.15;;
8365;SDS011;4220;42.502;24.188;2023-07-16T13:40:02;7.45;;;6.75;;
8365;SDS011;4220;42.502;24.188;2023-07-16T13:42:30;8.18;;;6.45;;
8365;SDS011;4220;42.502;24.188;2023-07-16T13:44:57;7.22;;;6.43;;
8365;SDS011;4220;42.502;24.188;2023-07-16T13:47:25;8.70;;;6.63;;
8365;SDS011;4220;42.502;24.188;2023-07-16T13:49:52;15.23;;;7.38;;
8365;SDS011;4220;42.502;24.188;2023-07-16T13:52:18;14.60;;;7.38;;
8365;SDS011;4220;42.502;24.188;2023-07-16T13:54:45;15.00;;;6.50;;
8365;SDS011;4220;42.502;24.188;2023-07-16T13:57:12;10.15;;;6.97;;
8365;SDS011;4220;42.502;24.188;2023-07-16T13:59:39;8.50;;;6.60;;
8365;SDS011;4220;42.502;24.188;2023-07-16T14:02:06;6.85;;;6.03;;
8365;SDS011;4220;42.502;24.188;2023-07-16T14:04:34;8.43;;;6.82;;
8365;SDS011;4220;42.502;24.188;2023-07-16T14:07:01;10.00;;;6.65;;
8365;SDS011;4220;42.502;24.188;2023-07-16T14:09:27;7.97;;;6.78;;
8365;SDS011;4220;42.502;24.188;2023-07-16T14:11:55;8.65;;;6.60;;
8365;SDS011;4220;42.502;24.188;2023-07-16T14:14:22;7.25;;;6.55;;
8365;SDS011;4220;42.502;24.188;2023-07-16T14:16:49;7.18;;;6.50;;
8365;SDS011;4220;42.502;24.188;2023-07-16T14:19:16;7.80;;;6.53;;
8365;SDS011;4220;42.502;24.188;2023-07-16T14:21:44;7.18;;;6.40;;
8365;SDS011;4220;42.502;24.188;2023-07-16T14:24:11;8.25;;;6.45;;
8365;SDS011;4220;42.502;24.188;2023-07-16T14:26:38;11.77;;;6.57;;
8365;SDS011;4220;42.502;24.188;2023-07-16T14:29:05;10.30;;;7.00;;
8365;SDS011;4220;42.502;24.188;2023-07-16T14:31:32;7.30;;;6.70;;
8365;SDS011;4220;42.502;24.188;2023-07-16T14:33:59;8.38;;;6.30;;
8365;SDS011;4220;42.502;24.188;2023-07-16T14:36:27;8.38;;;6.90;;
8365;SDS011;4220;42.502;24.188;2023-07-16T14:38:55;7.25;;;6.45;;
8365;SDS011;4220;42.502;24.188;2023-07-16T14:41:22;22.90;;;11.18;;
8365;SDS011;4220;42.502;24.188;2023-07-16T14:43:49;13.93;;;6.78;;
8365;SDS011;4220;42.502;24.188;2023-07-16T14:46:16;8.48;;;6.30;;
8365;SDS011;4220;42.502;24.188;2023-07-16T14:48:43;7.75;;;6.75;;
8365;SDS011;4220;42.502;24.188;2023-07-16T14:51:10;8.70;;;6.50;;
8365;SDS011;4220;42.502;24.188;2023-07-16T14:53:37;6.85;;;6.13;;
8365;SDS011;4220;42.502;24.188;2023-07-16T14:56:05;7.53;;;6.68;;
8365;SDS011;4220;42.502;24.188;2023-07-16T14:58:32;7.88;;;6.07;;
8365;SDS011;4220;42.502;24.188;2023-07-16T15:01:01;7.60;;;6.00;;
8365;SDS011;4220;42.502;24.188;2023-07-16T15:03:32;7.55;;;6.28;;
8365;SDS011;4220;42.502;24.188;2023-07-16T15:06:00;10.07;;;6.55;;